Time;durP1;ratioP1;P1;durP2;ratioP2;P2;SDS_P1;SDS_P2;PMS_P1;PMS_P2;Temp;Humidity;BMP_temperature;BMP_pressure;BME280_temperature;BME280_humidity;BME280_pressure;Samples;Min_cycle;Max_cycle;Signal;HPM_P1;HPM_P2
2022/08/22 00:00:15;;;;;;;8.00;6.30;;;21.40;99.90;;;;;;6398841;23;20062;-76
2022/08/22 00:03:14;;;;;;;8.02;6.18;;;21.50;99.90;;;;;;6399025;23;20001;-76
2022/08/22 00:06:12;;;;;;;8.27;6.47;;;21.40;99.90;;;;;;6399100;23;20001;-76
2022/08/22 00:09:01;;;;;;;9.13;5.93;;;21.40;99.90;;;;;;6398818;23;20013;-76
2022/08/22 00:11:51;;;;;;;9.05;6.60;;;21.50;99.90;;;;;;6398685;23;20028;-76
2022/08/22 00:14:39;;;;;;;;;;;21.50;99.90;;;;;;6399128;23;20009;-76
2022/08/22 00:17:39;;;;;;;6.90;5.55;;;21.40;99.90;;;;;;6398339;23;19963;-76
2022/08/22 00:20:40;;;;;;;8.43;6.13;;;21.40;99.90;;;;;;6366636;23;20005;-76
2022/08/22 00:23:24;;;;;;;7.45;5.55;;;21.40;99.90;;;;;;6398150;23;20015;-76
2022/08/22 00:26:20;;;;;;;7.47;5.28;;;21.40;99.90;;;;;;6398336;23;20013;-76
2022/08/22 00:29:00;;;;;;;8.02;5.70;;;21.40;99.90;;;;;;6398199;23;20016;-76
2022/08/22 00:31:31;;;;;;;7.70;5.80;;;21.00;99.90;;;;;;6398153;23;20009;-76
2022/08/22 00:34:22;;;;;;;8.57;6.32;;;21.20;99.90;;;;;;6371957;23;20011;-76
2022/08/22 00:37:16;;;;;;;7.50;6.07;;;21.40;99.90;;;;;;6398434;23;20028;-76
2022/08/22 00:40:13;;;;;;;8.25;5.85;;;21.20;99.90;;;;;;6342118;23;20024;-76
2022/08/22 00:43:17;;;;;;;7.53;6.00;;;21.10;99.90;;;;;;6383315;23;20413;-76
2022/08/22 00:46:20;;;;;;;9.00;5.65;;;21.30;99.90;;;;;;6397968;23;20005;-76
2022/08/22 00:49:14;;;;;;;7.32;5.15;;;21.40;99.90;;;;;;6380821;23;20013;-76
2022/08/22 00:51:54;;;;;;;7.03;5.40;;;21.40;99.90;;;;;;6398187;23;20009;-76
2022/08/22 00:54:43;;;;;;;6.90;5.50;;;21.40;99.90;;;;;;6398054;23;20008;-76
2022/08/22 00:57:32;;;;;;;6.70;5.38;;;21.20;99.90;;;;;;6398254;23;20027;-76
2022/08/22 01:00:19;;;;;;;7.57;5.93;;;21.20;99.90;;;;;;6398094;23;20341;-76
2022/08/22 01:03:18;;;;;;;8.25;6.32;;;21.10;99.90;;;;;;6397648;23;20005;-76
2022/08/22 01:06:03;;;;;;;8.20;6.40;;;21.30;99.90;;;;;;6398232;23;20001;-76
2022/08/22 01:08:59;;;;;;;8.70;6.07;;;21.20;99.90;;;;;;6398339;23;20016;-76
2022/08/22 01:11:51;;;;;;;8.75;7.05;;;21.00;99.90;;;;;;6397017;23;20410;-76
2022/08/22 01:14:55;;;;;;;8.32;6.53;;;21.30;99.90;;;;;;6371858;23;20039;-76
2022/08/22 01:17:50;;;;;;;7.20;5.55;;;21.10;99.90;;;;;;6398004;23;20080;-76
2022/08/22 01:20:48;;;;;;;9.60;7.57;;;21.00;99.90;;;;;;6398258;23;20007;-76
2022/08/22 01:23:49;;;;;;;9.48;6.88;;;21.00;99.90;;;;;;6397625;23;20017;-76
2022/08/22 01:26:57;;;;;;;8.35;6.95;;;21.20;99.90;;;;;;6397938;23;20448;-76
2022/08/22 01:29:57;;;;;;;8.00;6.40;;;21.10;99.90;;;;;;6397830;23;20496;-76
2022/08/22 01:32:43;;;;;;;9.32;6.30;;;21.10;99.90;;;;;;6371145;23;20007;-76
2022/08/22 01:35:47;;;;;;;7.47;6.00;;;21.00;99.90;;;;;;6397622;23;20027;-76
2022/08/22 01:38:36;;;;;;;8.73;6.35;;;21.00;99.90;;;;;;6397931;23;20001;-76
2022/08/22 01:41:55;;;;;;;9.02;6.57;;;20.90;99.90;;;;;;6371327;23;20009;-76
2022/08/22 01:44:49;;;;;;;8.75;6.47;;;20.90;99.90;;;;;;6380138;23;20002;-76
2022/08/22 01:47:50;;;;;;;8.10;6.22;;;20.80;99.90;;;;;;6397553;23;20362;-76
2022/08/22 01:50:21;;;;;;;7.40;5.75;;;21.10;99.90;;;;;;6351741;23;20013;-76
2022/08/22 01:53:15;;;;;;;6.75;5.80;;;21.00;99.90;;;;;;6397483;23;20341;-76
2022/08/22 01:56:09;;;;;;;7.15;5.80;;;21.00;99.90;;;;;;6397422;23;20037;-76
2022/08/22 01:59:03;;;;;;;7.93;6.10;;;20.90;99.90;;;;;;6371084;23;20481;-75
2022/08/22 02:01:56;;;;;;;7.20;5.80;;;20.80;99.90;;;;;;6397206;23;20447;-76
2022/08/22 02:04:33;;;;;;;7.75;5.50;;;20.70;99.90;;;;;;6395889;23;20056;-75
2022/08/22 02:07:04;;;;;;;6.47;5.53;;;20.70;99.90;;;;;;6397398;23;20418;-76
2022/08/22 02:10:01;;;;;;;7.60;5.60;;;20.50;99.90;;;;;;6397380;23;19997;-75
2022/08/22 02:13:13;;;;;;;7.75;5.05;;;20.60;99.90;;;;;;6397409;23;20060;-76
2022/08/22 02:15:53;;;;;;;9.32;5.28;;;20.60;99.90;;;;;;6331776;23;20008;-76
2022/08/22 02:18:29;;;;;;;7.70;5.65;;;20.50;99.90;;;;;;6397952;23;20001;-76
2022/08/22 02:21:19;;;;;;;7.55;5.75;;;20.50;99.90;;;;;;6396052;23;20382;-75
2022/08/22 02:23:55;;;;;;;7.55;5.50;;;20.60;99.90;;;;;;6397002;23;20024;-75
2022/08/22 02:27:02;;;;;;;7.97;5.70;;;20.40;99.90;;;;;;6397341;23;20056;-75
2022/08/22 02:29:33;;;;;;;5.80;4.75;;;20.50;99.90;;;;;;6344333;23;20016;-76
2022/08/22 02:32:23;;;;;;;8.32;5.85;;;20.70;99.90;;;;;;6397542;23;20045;-76
2022/08/22 02:35:21;;;;;;;7.75;6.22;;;20.60;99.90;;;;;;6397615;23;20005;-76
2022/08/22 02:38:28;;;;;;;7.35;5.43;;;20.40;99.90;;;;;;6398249;23;20362;-76
2022/08/22 02:41:14;;;;;;;7.63;6.00;;;20.20;99.90;;;;;;6396080;23;20005;-76
2022/08/22 02:43:48;;;;;;;7.97;6.47;;;20.50;99.90;;;;;;6397280;23;19997;-76
2022/08/22 02:46:37;;;;;;;10.88;6.65;;;20.40;99.90;;;;;;6397032;23;20440;-76
2022/08/22 02:49:11;;;;;;;6.55;5.57;;;20.70;99.90;;;;;;6397502;23;20040;-76
2022/08/22 02:51:47;;;;;;;8.48;6.20;;;20.60;99.90;;;;;;6397315;23;20080;-76
2022/08/22 02:54:42;;;;;;;6.65;5.38;;;20.50;99.90;;;;;;6397494;23;20013;-76
2022/08/22 02:57:28;;;;;;;7.25;5.30;;;20.40;99.90;;;;;;6397167;23;20005;-76
2022/08/22 03:00:29;;;;;;;6.65;5.50;;;20.50;99.90;;;;;;6394765;23;20005;-76
2022/08/22 03:03:23;;;;;;;8.05;5.75;;;20.60;99.90;;;;;;6397013;23;20060;-76
2022/08/22 03:06:05;;;;;;;9.02;6.45;;;20.40;99.90;;;;;;6397298;23;20033;-76
2022/08/22 03:08:58;;;;;;;7.50;5.45;;;20.30;99.90;;;;;;6397334;23;20009;-76
2022/08/22 03:11:35;;;;;;;10.23;6.05;;;20.50;99.90;;;;;;6395829;23;20015;-76
2022/08/22 03:14:19;;;;;;;13.40;7.07;;;20.50;99.90;;;;;;6395872;23;20373;-76
2022/08/22 03:17:13;;;;;;;7.78;6.68;;;20.40;99.90;;;;;;6397054;23;20429;-76
2022/08/22 03:20:19;;;;;;;10.68;7.20;;;20.40;99.90;;;;;;6397155;23;20072;-76
2022/08/22 03:23:01;;;;;;;8.10;7.15;;;20.40;99.90;;;;;;6396283;23;20034;-76
2022/08/22 03:25:44;;;;;;;8.35;7.20;;;20.30;99.90;;;;;;6398418;23;20431;-77
2022/08/22 03:28:19;;;;;;;10.15;7.10;;;20.20;99.90;;;;;;6399403;23;20382;-76
2022/08/22 03:30:55;;;;;;;10.35;7.22;;;20.10;99.90;;;;;;6372672;23;20438;-76
2022/08/22 03:33:30;;;;;;;8.10;7.22;;;20.10;99.90;;;;;;6398858;23;20040;-76
2022/08/22 03:36:21;;;;;;;10.70;8.45;;;20.10;99.90;;;;;;6397309;23;20005;-76
2022/08/22 03:39:00;;;;;;;10.45;7.95;;;20.40;99.90;;;;;;6399126;23;20385;-76
2022/08/22 03:41:50;;;;;;;8.50;7.47;;;20.40;99.90;;;;;;6398911;23;20001;-76
2022/08/22 03:44:35;;;;;;;9.32;7.82;;;20.40;99.90;;;;;;6398889;23;20001;-76
2022/08/22 03:47:09;;;;;;;10.80;8.00;;;20.40;99.90;;;;;;6398525;23;20307;-76
2022/08/22 03:49:46;;;;;;;9.77;8.00;;;20.40;99.90;;;;;;6398911;23;20013;-76
2022/08/22 03:55:53;;;;;;;22.63;8.13;;;20.40;99.90;;;;;;6398764;23;20028;-76
2022/08/22 03:58:36;;;;;;;10.45;8.40;;;20.40;99.90;;;;;;6337984;23;20087;-75
2022/08/22 04:01:37;;;;;;;13.77;8.80;;;20.70;99.90;;;;;;6398878;23;20008;-76
2022/08/22 04:04:39;;;;;;;11.27;7.68;;;20.70;99.90;;;;;;6398636;23;19997;-75
2022/08/22 04:07:31;;;;;;;9.80;8.07;;;20.90;99.90;;;;;;6398521;23;20009;-76
2022/08/22 04:11:03;;;;;;;8.18;7.28;;;20.80;99.90;;;;;;6372178;23;20468;-76
2022/08/22 04:13:36;;;;;;;9.52;6.97;;;20.90;99.90;;;;;;6250374;23;20021;-76
2022/08/22 04:16:10;;;;;;;14.27;7.78;;;20.90;99.90;;;;;;6274305;23;20034;-76
2022/08/22 04:19:06;;;;;;;8.20;7.32;;;20.90;99.90;;;;;;6365177;23;20005;-75
2022/08/22 04:21:56;;;;;;;10.10;7.57;;;21.10;99.90;;;;;;6398389;23;20076;-76
2022/08/22 04:24:53;;;;;;;11.70;7.13;;;21.20;99.90;;;;;;6371954;23;20072;-76
2022/08/22 04:27:48;;;;;;;8.15;7.35;;;21.30;99.90;;;;;;6393205;23;20045;-76
2022/08/22 04:30:29;;;;;;;10.18;7.55;;;21.20;99.90;;;;;;6398383;23;20005;-75
2022/08/22 04:33:27;;;;;;;8.82;7.55;;;21.20;99.90;;;;;;6398668;23;20011;-76
2022/08/22 04:36:18;;;;;;;9.50;7.88;;;21.10;99.90;;;;;;6398516;23;20001;-76
2022/08/22 04:39:19;;;;;;;8.20;7.35;;;21.20;99.90;;;;;;6372220;23;20005;-75
2022/08/22 04:42:15;;;;;;;8.63;7.68;;;21.30;99.90;;;;;;6396852;23;20441;-76
2022/08/22 04:45:15;;;;;;;12.13;8.55;;;21.60;99.90;;;;;;6398119;23;20005;-76
2022/08/22 04:48:07;;;;;;;9.07;7.82;;;21.50;99.90;;;;;;6398339;23;20088;-76
2022/08/22 04:50:48;;;;;;;9.18;8.23;;;21.50;99.90;;;;;;6398258;23;20546;-76
2022/08/22 04:53:46;;;;;;;10.52;7.72;;;21.80;99.90;;;;;;6398025;23;20136;-76
2022/08/22 04:56:32;;;;;;;9.50;8.02;;;21.90;99.90;;;;;;6398177;23;20009;-76
2022/08/22 04:59:09;;;;;;;9.65;8.35;;;22.00;99.90;;;;;;6398181;23;20101;-75
2022/08/22 05:01:45;;;;;;;9.80;7.80;;;21.90;99.90;;;;;;6396311;23;20021;-76
2022/08/22 05:04:44;;;;;;;9.90;8.27;;;22.00;99.90;;;;;;6397865;23;20000;-75
2022/08/22 05:07:34;;;;;;;9.45;8.45;;;22.20;99.90;;;;;;6397866;23;20012;-76
2022/08/22 05:10:18;;;;;;;9.32;8.32;;;22.20;99.90;;;;;;6398076;23;20001;-76
2022/08/22 05:13:08;;;;;;;9.93;8.90;;;22.30;99.90;;;;;;6396313;23;20040;-76
2022/08/22 05:15:40;;;;;;;;;;;22.40;99.90;;;;;;6398316;23;20032;-76
2022/08/22 05:18:32;;;;;;;11.60;8.43;;;22.60;99.90;;;;;;6397920;23;19911;-76
2022/08/22 05:21:07;;;;;;;10.45;8.60;;;22.80;99.90;;;;;;6398287;23;20032;-76
2022/08/22 05:23:52;;;;;;;9.00;8.07;;;23.40;99.90;;;;;;6395528;23;20115;-76
2022/08/22 05:26:26;;;;;;;9.23;8.27;;;23.80;99.90;;;;;;6397505;23;20084;-75
2022/08/22 05:29:02;;;;;;;12.05;8.95;;;23.60;99.90;;;;;;6397366;23;20143;-76
2022/08/22 05:31:49;;;;;;;9.85;8.55;;;23.70;99.90;;;;;;6397471;23;20005;-76
2022/08/22 05:34:23;;;;;;;10.18;8.80;;;23.80;99.90;;;;;;6397211;23;20018;-76
2022/08/22 05:37:00;;;;;;;11.88;10.13;;;24.20;99.90;;;;;;6397716;23;20080;-75
2022/08/22 05:39:32;;;;;;;11.77;10.48;;;24.20;99.90;;;;;;6395905;23;20005;-75
2022/08/22 05:42:22;;;;;;;14.65;11.25;;;24.40;99.90;;;;;;6397437;23;20016;-75
2022/08/22 05:44:54;;;;;;;17.20;13.18;;;24.70;99.90;;;;;;6397976;23;20040;-75
2022/08/22 05:47:35;;;;;;;14.07;11.40;;;24.80;99.90;;;;;;6395304;23;20017;-74
2022/08/22 05:50:15;;;;;;;14.30;10.93;;;24.70;99.90;;;;;;6397625;23;20004;-75
2022/08/22 05:52:53;;;;;;;;;;;24.80;99.90;;;;;;6398138;23;20421;-75
2022/08/22 05:55:30;;;;;;;12.63;9.45;;;24.80;99.90;;;;;;6397646;23;19983;-74
2022/08/22 05:58:26;;;;;;;17.55;10.05;;;24.70;99.90;;;;;;6397705;23;20055;-74
2022/08/22 06:01:17;;;;;;;16.88;10.77;;;24.70;99.90;;;;;;6397499;23;20321;-74
2022/08/22 06:04:08;;;;;;;14.30;10.15;;;24.80;99.90;;;;;;6397586;23;20080;-74
2022/08/22 06:06:49;;;;;;;11.60;9.82;;;25.00;99.90;;;;;;6397632;23;20334;-75
2022/08/22 06:09:33;;;;;;;10.75;9.45;;;25.50;99.90;;;;;;6396166;23;20009;-74
2022/08/22 06:12:14;;;;;;;12.18;8.98;;;25.80;99.90;;;;;;6397590;23;20370;-75
2022/08/22 06:15:01;;;;;;;9.45;8.30;;;25.90;99.90;;;;;;6397544;23;20008;-75
2022/08/22 06:17:37;;;;;;;9.48;7.47;;;25.80;99.90;;;;;;6397301;23;20005;-74
2022/08/22 06:20:11;;;;;;;9.65;6.45;;;25.50;99.90;;;;;;6397419;23;20484;-74
2022/08/22 06:22:50;;;;;;;9.38;6.72;;;25.40;99.90;;;;;;6396917;23;20326;-74
2022/08/22 06:25:26;;;;;;;7.95;6.18;;;25.30;99.90;;;;;;6397608;23;20032;-75
2022/08/22 06:28:02;;;;;;;6.80;5.88;;;25.60;99.90;;;;;;6397281;23;20055;-74
2022/08/22 06:30:34;;;;;;;7.60;5.80;;;26.00;99.90;;;;;;6397439;23;20005;-74
2022/08/22 06:33:12;;;;;;;6.90;5.85;;;25.90;99.90;;;;;;6397234;23;20299;-74
2022/08/22 06:39:00;;;;;;;6.20;5.60;;;26.30;99.90;;;;;;6397334;23;20011;-74
2022/08/22 06:41:36;;;;;;;6.80;5.00;;;26.60;99.90;;;;;;6371262;23;20056;-75
2022/08/22 06:44:08;;;;;;;6.78;4.80;;;27.20;99.90;;;;;;6397431;23;20076;-75
2022/08/22 06:46:40;;;;;;;9.48;4.70;;;27.20;99.90;;;;;;6396880;23;20004;-74
2022/08/22 06:49:11;;;;;;;5.78;4.30;;;27.20;99.90;;;;;;6395276;23;20402;-74
2022/08/22 06:51:45;;;;;;;6.32;4.50;;;26.80;99.90;;;;;;6397216;23;20019;-75
2022/08/22 06:54:23;;;;;;;5.38;4.25;;;26.70;99.90;;;;;;6396165;23;20457;-74
2022/08/22 06:56:55;;;;;;;5.35;4.05;;;26.80;99.90;;;;;;6371042;23;20437;-74
2022/08/22 06:59:29;;;;;;;4.35;3.80;;;27.00;99.90;;;;;;6397510;23;20317;-74
2022/08/22 07:02:16;;;;;;;5.55;4.05;;;27.20;99.90;;;;;;6399297;23;20048;-75
2022/08/22 07:04:48;;;;;;;6.18;4.25;;;27.50;99.90;;;;;;6399552;23;20405;-75
2022/08/22 07:07:25;;;;;;;5.35;4.00;;;27.90;99.90;;;;;;6398967;23;20077;-75
2022/08/22 07:09:56;;;;;;;3.55;3.20;;;27.40;99.90;;;;;;6399371;23;20005;-75
2022/08/22 07:12:31;;;;;;;4.38;3.50;;;27.20;99.90;;;;;;6399403;23;19997;-75
2022/08/22 07:15:33;;;;;;;5.43;3.35;;;26.90;99.90;;;;;;6399063;23;20005;-74
2022/08/22 07:18:17;;;;;;;5.07;3.55;;;27.20;99.90;;;;;;6397897;23;20092;-75
2022/08/22 07:21:02;;;;;;;5.53;3.95;;;27.60;99.90;;;;;;6398956;23;20009;-74
2022/08/22 07:23:35;;;;;;;9.07;3.80;;;27.80;99.90;;;;;;6398728;23;20028;-74
2022/08/22 07:26:37;;;;;;;4.57;3.75;;;27.80;99.90;;;;;;6399159;23;20009;-74
2022/08/22 07:29:15;;;;;;;5.15;3.40;;;27.90;99.90;;;;;;6398962;23;20024;-75
2022/08/22 07:32:06;;;;;;;3.35;3.00;;;28.10;99.90;;;;;;6372659;23;20092;-75
2022/08/22 07:35:14;;;;;;;4.53;3.83;;;28.20;99.90;;;;;;6338356;23;20422;-74
2022/08/22 07:37:53;;;;;;;5.88;3.42;;;27.80;99.90;;;;;;6398831;23;20028;-75
2022/08/22 07:40:33;;;;;;;4.05;3.47;;;28.30;99.90;;;;;;6398794;23;20001;-74
2022/08/22 07:43:06;;;;;;;6.35;3.47;;;28.40;99.90;;;;;;6398478;23;20029;-75
2022/08/22 07:45:52;;;;;;;4.88;3.13;;;28.70;99.90;;;;;;6398607;23;20001;-75
2022/08/22 07:48:33;;;;;;;4.40;3.58;;;28.00;99.90;;;;;;6398559;23;20013;-76
2022/08/22 07:51:08;;;;;;;6.07;3.78;;;27.50;99.90;;;;;;6398831;23;20048;-76
2022/08/22 07:53:42;;;;;;;4.20;3.60;;;27.40;99.90;;;;;;6398925;23;20012;-76
2022/08/22 07:56:20;;;;;;;4.05;3.40;;;27.20;99.90;;;;;;6398898;23;20023;-76
2022/08/22 07:59:06;;;;;;;4.35;3.10;;;27.20;99.90;;;;;;6372707;23;20009;-76
2022/08/22 08:01:42;;;;;;;5.20;3.90;;;28.30;99.90;;;;;;6398538;23;20001;-76
2022/08/22 08:04:19;;;;;;;5.30;3.40;;;28.00;99.90;;;;;;6397743;23;20056;-75
2022/08/22 08:06:54;;;;;;;5.18;3.42;;;27.40;99.90;;;;;;6397536;23;20365;-76
2022/08/22 08:09:32;;;;;;;4.22;3.00;;;27.60;99.90;;;;;;6397214;23;20013;-76
2022/08/22 08:12:04;;;;;;;6.22;3.35;;;28.20;99.90;;;;;;6398866;23;20232;-76
2022/08/22 08:14:43;;;;;;;3.63;3.17;;;28.50;99.90;;;;;;6398546;23;20083;-76
2022/08/22 08:17:26;;;;;;;3.65;3.35;;;28.30;99.90;;;;;;6398723;23;20008;-76
2022/08/22 08:19:58;;;;;;;5.03;3.42;;;28.50;99.90;;;;;;6398636;23;20079;-76
2022/08/22 08:22:30;;;;;;;7.70;3.53;;;28.40;99.90;;;;;;6398093;23;20133;-76
2022/08/22 08:25:02;;;;;;;3.85;3.15;;;27.90;99.90;;;;;;6397094;23;20060;-76
2022/08/22 08:30:32;;;;;;;5.25;3.50;;;27.60;99.90;;;;;;6398587;23;20467;-76
2022/08/22 08:33:06;;;;;;;5.10;3.70;;;27.60;99.90;;;;;;6372272;23;20464;-75
2022/08/22 08:35:42;;;;;;;6.13;3.30;;;27.70;99.90;;;;;;6397988;23;20307;-76
2022/08/22 08:38:26;;;;;;;4.95;3.55;;;28.30;99.90;;;;;;6398296;23;20008;-76
2022/08/22 08:41:09;;;;;;;7.25;3.58;;;27.90;99.90;;;;;;6396621;23;20441;-76
2022/08/22 08:44:14;;;;;;;4.68;3.50;;;27.70;99.90;;;;;;6398231;23;20001;-76
2022/08/22 08:47:06;;;;;;;5.70;3.80;;;27.70;99.90;;;;;;6398233;23;20295;-76
2022/08/22 08:50:17;;;;;;;4.50;3.50;;;27.50;99.90;;;;;;6396634;23;20008;-76
2022/08/22 08:53:34;;;;;;;4.30;3.58;;;27.40;99.90;;;;;;6397924;23;20005;-75
2022/08/22 08:56:24;;;;;;;4.07;3.40;;;27.50;99.90;;;;;;6398194;23;20001;-75
2022/08/22 08:59:12;;;;;;;6.15;3.70;;;27.60;99.90;;;;;;6398180;23;20417;-78
2022/08/22 09:02:08;;;;;;;5.13;3.80;;;27.20;99.90;;;;;;6397768;23;20311;-78
2022/08/22 09:04:44;;;;;;;5.70;3.53;;;27.40;99.90;;;;;;6396257;23;20012;-77
2022/08/22 09:07:40;;;;;;;4.85;3.88;;;27.30;99.90;;;;;;6397817;23;20005;-77
2022/08/22 09:10:29;;;;;;;4.53;3.42;;;27.40;99.90;;;;;;6397981;23;20560;-78
2022/08/22 09:13:25;;;;;;;6.53;3.50;;;27.40;99.90;;;;;;6372052;23;20012;-77
2022/08/22 09:16:05;;;;;;;4.43;3.30;;;27.40;99.90;;;;;;6398060;23;20001;-77
2022/08/22 09:18:52;;;;;;;6.30;2.90;;;28.20;99.90;;;;;;6397874;23;20012;-77
2022/08/22 09:21:48;;;;;;;3.88;3.47;;;28.60;99.90;;;;;;6397834;23;20083;-77
2022/08/22 09:24:40;;;;;;;3.85;3.30;;;28.50;99.90;;;;;;6397482;23;20024;-77
2022/08/22 09:27:25;;;;;;;5.32;3.50;;;29.40;99.90;;;;;;6398079;23;20009;-78
2022/08/22 09:30:10;;;;;;;4.90;3.38;;;28.50;99.90;;;;;;6397904;23;20035;-77
2022/08/22 09:32:47;;;;;;;4.75;3.30;;;28.30;99.90;;;;;;6371581;23;20397;-78
2022/08/22 09:35:47;;;;;;;5.38;3.60;;;28.00;99.90;;;;;;6398136;23;20112;-77
2022/08/22 09:38:35;;;;;;;5.95;3.60;;;28.60;99.90;;;;;;6371989;23;20433;-78
2022/08/22 09:41:12;;;;;;;4.40;3.20;;;29.10;99.90;;;;;;6371774;23;20016;-77
2022/08/22 09:43:50;;;;;;;5.30;2.83;;;29.00;99.90;;;;;;6397640;23;20009;-78
2022/08/22 09:46:30;;;;;;;5.30;3.28;;;28.30;99.90;;;;;;6397798;23;20008;-78
2022/08/22 09:49:33;;;;;;;4.53;3.17;;;27.90;99.90;;;;;;6397187;23;20013;-77
2022/08/22 09:52:32;;;;;;;4.85;3.25;;;28.10;99.90;;;;;;6395233;23;20377;-77
2022/08/22 09:55:23;;;;;;;;;;;28.00;99.90;;;;;;6398313;23;20092;-78
2022/08/22 09:58:09;;;;;;;4.05;3.20;;;28.10;99.90;;;;;;6397062;23;20267;-78
2022/08/22 10:00:54;;;;;;;3.30;3.00;;;28.80;99.90;;;;;;6371441;23;20012;-77
2022/08/22 10:03:52;;;;;;;4.13;2.85;;;29.40;99.90;;;;;;6397488;23;20029;-78
2022/08/22 10:06:29;;;;;;;4.03;2.97;;;28.90;99.90;;;;;;6397534;23;20007;-77
2022/08/22 10:09:08;;;;;;;4.88;2.85;;;29.40;99.90;;;;;;6397328;23;20016;-76
2022/08/22 10:11:52;;;;;;;3.17;2.53;;;29.30;99.90;;;;;;6397179;23;20328;-77
2022/08/22 10:14:47;;;;;;;2.60;2.35;;;29.60;99.90;;;;;;6397516;23;20005;-77
2022/08/22 10:17:35;;;;;;;3.13;2.72;;;29.70;99.90;;;;;;6397158;23;20009;-77
2022/08/22 10:20:20;;;;;;;2.78;2.58;;;29.70;99.90;;;;;;6397721;23;20479;-77
2022/08/22 10:23:19;;;;;;;4.03;2.55;;;29.90;99.90;;;;;;6397049;23;20013;-77
2022/08/22 10:25:56;;;;;;;6.70;2.70;;;30.10;99.90;;;;;;6397560;23;20005;-77
2022/08/22 10:28:56;;;;;;;3.40;2.80;;;30.00;99.90;;;;;;6397302;23;20039;-78
2022/08/22 10:31:38;;;;;;;2.97;2.60;;;29.90;99.90;;;;;;6393845;23;20005;-77
2022/08/22 10:34:19;;;;;;;3.17;2.88;;;29.20;99.90;;;;;;6397456;23;20005;-77
2022/08/22 10:37:10;;;;;;;3.95;3.30;;;29.40;99.90;;;;;;6397706;23;20373;-77
2022/08/22 10:39:47;;;;;;;3.38;2.78;;;29.30;99.90;;;;;;6399451;23;20084;-77
2022/08/22 10:42:32;;;;;;;3.30;2.70;;;30.30;99.90;;;;;;6373288;23;20025;-78
2022/08/22 10:45:16;;;;;;;3.00;2.50;;;29.50;99.90;;;;;;6399500;23;20013;-78
2022/08/22 10:47:49;;;;;;;3.47;2.50;;;29.70;99.90;;;;;;6399705;23;20044;-79
2022/08/22 10:50:29;;;;;;;3.58;2.90;;;30.00;99.90;;;;;;6372722;23;20001;-79
2022/08/22 10:53:33;;;;;;;2.80;2.50;;;29.70;99.90;;;;;;6372773;23;20020;-78
2022/08/22 10:56:13;;;;;;;2.80;2.47;;;30.10;99.90;;;;;;6399149;23;20489;-79
2022/08/22 10:58:54;;;;;;;6.72;2.60;;;30.50;99.90;;;;;;6372611;23;20092;-80
2022/08/22 11:01:31;;;;;;;3.33;2.55;;;30.60;99.90;;;;;;6399213;23;20013;-78
2022/08/22 11:04:11;;;;;;;2.80;2.47;;;30.40;99.90;;;;;;6397607;23;20001;-79
2022/08/22 11:06:51;;;;;;;3.78;2.13;;;31.10;99.90;;;;;;6399170;23;20306;-80
2022/08/22 11:09:36;;;;;;;6.05;2.60;;;31.20;99.90;;;;;;6398637;23;20036;-77
2022/08/22 11:12:11;;;;;;;2.30;2.08;;;31.00;99.90;;;;;;6372714;23;20744;-79
2022/08/22 11:15:12;;;;;;;2.85;2.50;;;31.00;99.90;;;;;;6398796;23;20101;-79
2022/08/22 11:18:01;;;;;;;5.20;2.90;;;30.40;99.90;;;;;;6372551;23;20028;-77
2022/08/22 11:54:16;;;;;;;4.10;3.17;;;30.00;99.90;;;;;;5306727;27;20455;-75
2022/08/22 11:56:52;;;;;;;3.25;2.92;;;30.50;99.90;;;;;;5306782;28;20031;-74
2022/08/22 11:59:59;;;;;;;4.55;3.05;;;30.40;99.90;;;;;;5306770;28;20154;-74
2022/08/22 12:03:11;;;;;;;4.10;3.30;;;29.60;99.90;;;;;;5306905;28;20031;-74
2022/08/22 12:05:44;;;;;;;4.20;2.83;;;29.80;99.90;;;;;;5306798;28;20477;-74
2022/08/22 12:08:50;;;;;;;4.35;2.92;;;30.20;99.90;;;;;;5306242;28;20054;-74
2022/08/22 12:11:26;;;;;;;3.72;2.92;;;30.20;99.90;;;;;;5306118;28;20048;-74
2022/08/22 12:13:57;;;;;;;4.43;2.85;;;30.50;99.90;;;;;;5297143;28;20026;-74
2022/08/22 12:16:56;;;;;;;3.33;2.72;;;30.20;99.90;;;;;;5306555;27;20474;-74
2022/08/22 12:19:51;;;;;;;4.28;2.90;;;30.10;99.90;;;;;;5305208;28;20016;-74
2022/08/22 12:22:51;;;;;;;3.90;2.80;;;29.60;99.90;;;;;;5306414;28;20028;-74
2022/08/22 12:25:48;;;;;;;5.40;3.38;;;29.70;99.90;;;;;;5306719;27;20031;-75
2022/08/22 12:28:57;;;;;;;3.83;2.60;;;29.50;99.90;;;;;;5306309;28;20034;-74
2022/08/22 12:31:46;;;;;;;;;;;30.30;99.90;;;;;;5305182;28;20035;-74
2022/08/22 12:34:24;;;;;;;7.07;2.85;;;30.60;99.90;;;;;;5305902;28;19903;-74
2022/08/22 12:37:00;;;;;;;3.88;2.78;;;30.50;99.90;;;;;;5306007;27;20588;-74
2022/08/22 12:40:00;;;;;;;3.22;2.88;;;30.80;99.90;;;;;;5305846;27;20362;-76
2022/08/22 12:42:36;;;;;;;;;;;30.90;99.90;;;;;;5306043;27;20085;-76
2022/08/22 12:45:24;;;;;;;6.78;2.97;;;30.40;99.90;;;;;;5305726;28;19904;-75
2022/08/22 12:48:15;;;;;;;4.20;3.22;;;29.80;99.90;;;;;;5305773;28;20023;-75
2022/08/22 12:51:20;;;;;;;4.45;2.90;;;30.40;99.90;;;;;;5263561;27;20096;-74
2022/08/22 12:53:59;;;;;;;4.30;2.80;;;30.00;99.90;;;;;;5298297;27;20391;-75
2022/08/22 12:56:55;;;;;;;4.15;3.10;;;30.30;99.90;;;;;;5291577;28;20027;-74
2022/08/22 12:59:34;;;;;;;4.60;3.10;;;30.00;99.90;;;;;;5291544;28;20088;-74
2022/08/22 13:02:22;;;;;;;4.15;3.00;;;29.90;99.90;;;;;;5291629;28;20035;-74
2022/08/22 13:05:12;;;;;;;4.18;3.03;;;29.70;99.90;;;;;;5291059;28;20089;-75
2022/08/22 13:08:15;;;;;;;5.57;3.05;;;30.70;99.90;;;;;;5291200;28;20059;-75
2022/08/22 13:10:51;;;;;;;3.63;3.28;;;30.30;99.90;;;;;;5287087;28;20040;-74
2022/08/22 13:13:31;;;;;;;5.32;2.80;;;30.20;99.90;;;;;;5291119;28;20031;-74
2022/08/22 13:16:09;;;;;;;3.88;2.40;;;30.20;99.90;;;;;;5291251;27;20019;-75
2022/08/22 13:18:54;;;;;;;5.38;3.03;;;30.40;99.90;;;;;;5291347;28;20019;-76
2022/08/22 13:21:31;;;;;;;4.78;3.00;;;30.60;99.90;;;;;;5291081;28;20019;-74
2022/08/22 13:24:10;;;;;;;5.70;2.90;;;29.90;99.90;;;;;;5290834;28;20035;-75
2022/08/22 13:26:53;;;;;;;3.78;2.85;;;29.30;99.90;;;;;;5290968;28;20027;-75
2022/08/22 13:29:39;;;;;;;6.30;3.30;;;29.40;99.90;;;;;;5291337;28;20020;-74
2022/08/22 13:32:29;;;;;;;4.63;3.13;;;30.00;99.90;;;;;;5291414;28;20020;-74
2022/08/22 13:35:00;;;;;;;4.82;3.25;;;29.70;99.90;;;;;;5291390;28;20028;-75
2022/08/22 13:37:43;;;;;;;4.93;3.40;;;29.50;99.90;;;;;;5291267;28;20020;-76
2022/08/22 13:40:24;;;;;;;7.07;3.22;;;30.00;99.90;;;;;;5291277;28;20058;-73
2022/08/22 13:43:05;;;;;;;3.22;2.78;;;29.90;99.90;;;;;;5291153;28;20038;-74
2022/08/22 13:45:38;;;;;;;4.47;3.05;;;29.60;99.90;;;;;;5291180;28;20463;-74
2022/08/22 13:48:14;;;;;;;4.65;3.35;;;29.90;99.90;;;;;;5291096;28;20023;-77
2022/08/22 13:51:13;;;;;;;5.65;3.55;;;29.60;99.90;;;;;;5291074;28;20132;-75
2022/08/22 13:53:52;;;;;;;4.50;3.38;;;29.90;99.90;;;;;;5290882;28;20054;-76
2022/08/22 13:56:28;;;;;;;6.07;3.17;;;29.90;99.90;;;;;;5290888;28;20031;-77
2022/08/22 13:59:04;;;;;;;4.35;2.65;;;30.10;99.90;;;;;;5290917;28;20111;-75
2022/08/22 14:01:49;;;;;;;4.68;2.95;;;29.50;99.90;;;;;;5289365;28;20042;-76
2022/08/22 14:04:28;;;;;;;5.90;3.10;;;29.10;99.90;;;;;;5290750;28;20031;-74
2022/08/22 14:07:05;;;;;;;;;;;29.10;99.90;;;;;;5290356;28;20016;-77
2022/08/22 14:09:59;;;;;;;4.07;2.97;;;29.10;99.90;;;;;;5290655;27;19911;-76
2022/08/22 14:13:16;;;;;;;5.85;3.20;;;29.10;99.90;;;;;;5290351;28;20471;-76
2022/08/22 14:15:47;;;;;;;4.35;3.55;;;29.20;99.90;;;;;;5260133;27;20035;-74
2022/08/22 14:18:53;;;;;;;6.18;3.30;;;29.20;99.90;;;;;;5290393;28;20046;-74
2022/08/22 14:21:27;;;;;;;7.10;3.50;;;29.40;99.90;;;;;;5251923;28;20058;-75
